createdAt,value
2018-04-22T00:00:04.574Z,51.44
2018-04-22T00:01:04.558Z,51.63
2018-04-22T00:02:04.542Z,51.06
2018-04-22T00:03:04.524Z,51.54
2018-04-22T00:04:04.508Z,51.63
2018-04-22T00:05:04.496Z,51.54
2018-04-22T00:06:04.475Z,51.25
2018-04-22T00:07:04.461Z,51.82
2018-04-22T00:08:04.440Z,51.54
2018-04-22T00:09:04.422Z,51.73
2018-04-22T00:10:04.408Z,51.63
2018-04-22T00:11:04.389Z,51.54
2018-04-22T00:12:04.374Z,51.25
2018-04-22T00:13:04.357Z,51.54
2018-04-22T00:14:04.340Z,52.01
2018-04-22T00:15:04.324Z,51.54
2018-04-22T00:16:04.311Z,51.34
2018-04-22T00:17:04.288Z,51.92
2018-04-22T00:18:04.274Z,51.44
2018-04-22T00:19:04.256Z,51.44
2018-04-22T00:20:04.239Z,51.15
2018-04-22T00:21:04.224Z,52.01
2018-04-22T00:22:04.205Z,51.73
2018-04-22T00:23:04.189Z,52.40
2018-04-22T00:24:04.175Z,52.69
2018-04-22T00:25:04.157Z,52.50
2018-04-22T00:26:04.146Z,51.54
2018-04-22T00:27:04.133Z,51.82
2018-04-22T00:28:04.102Z,52.11
2018-04-22T00:29:04.089Z,52.59
2018-04-22T00:30:04.070Z,52.87
2018-04-22T00:31:04.052Z,52.47
2018-04-22T00:32:04.033Z,53.16
2018-04-22T00:33:04.021Z,52.50
2018-04-22T00:34:04.000Z,52.11
2018-04-22T00:35:03.985Z,52.50
2018-04-22T00:36:03.967Z,52.37
2018-04-22T00:37:03.961Z,53.07
2018-04-22T00:38:03.934Z,53.14
2018-04-22T00:39:03.925Z,53.33
2018-04-22T00:40:03.900Z,53.33
2018-04-22T00:41:03.882Z,53.42
2018-04-22T00:42:03.863Z,53.71
2018-04-22T00:43:03.851Z,54.10
2018-04-22T00:44:03.831Z,53.81
2018-04-22T00:45:03.814Z,54.00
2018-04-22T00:46:03.800Z,53.62
2018-04-22T00:47:03.781Z,54.28
2018-04-22T00:48:03.765Z,54.10
2018-04-22T00:49:03.746Z,53.91
2018-04-22T00:50:03.741Z,54.00
2018-04-22T00:51:03.711Z,53.71
2018-04-22T00:52:03.695Z,53.81
2018-04-22T00:53:03.692Z,53.91
2018-04-22T00:54:03.675Z,54.10
2018-04-22T00:55:03.642Z,54.10
2018-04-22T00:56:03.626Z,54.10
2018-04-22T00:57:03.609Z,54.67
2018-04-22T00:58:03.591Z,54.48
2018-04-22T00:59:03.576Z,54.57
2018-04-22T01:00:03.557Z,53.91
2018-04-22T01:01:03.541Z,54.07
2018-04-22T01:02:03.526Z,53.78
2018-04-22T01:03:03.511Z,53.71
2018-04-22T01:04:03.488Z,54.64
2018-04-22T01:05:03.472Z,53.78
2018-04-22T01:06:03.456Z,53.78
2018-04-22T01:07:03.438Z,53.97
2018-04-22T01:08:03.421Z,54.45
2018-04-22T01:09:03.402Z,54.16
2018-04-22T01:10:03.387Z,54.26
2018-04-22T01:11:03.368Z,54.55
2018-04-22T01:12:03.348Z,54.74
2018-04-22T01:13:03.333Z,54.16
2018-04-22T01:14:03.315Z,54.45
2018-04-22T01:15:03.301Z,54.64
2018-04-22T01:16:03.280Z,54.26
2018-04-22T01:17:03.262Z,54.26
2018-04-22T01:18:03.247Z,54.45
2018-04-22T01:19:03.230Z,54.36
2018-04-22T01:20:03.212Z,54.74
2018-04-22T01:21:03.195Z,54.36
2018-04-22T01:22:03.179Z,54.45
2018-04-22T01:23:03.167Z,54.16
2018-04-22T01:24:03.142Z,54.45
2018-04-22T01:25:03.125Z,54.93
2018-04-22T01:26:03.109Z,54.55
2018-04-22T01:27:03.093Z,54.64
2018-04-22T01:28:03.077Z,54.26
2018-04-22T01:29:03.057Z,55.02
2018-04-22T01:30:03.040Z,54.93
2018-04-22T01:31:03.025Z,55.12
2018-04-22T01:32:03.019Z,55.31
2018-04-22T01:33:02.988Z,54.93
2018-04-22T01:34:02.999Z,55.88
2018-04-22T01:35:02.960Z,55.41
2018-04-22T01:36:03.015Z,56.15
2018-04-22T01:37:02.927Z,56.17
2018-04-22T01:38:03.002Z,56.15
2018-04-22T01:39:02.884Z,56.05
2018-04-22T01:40:02.911Z,56.72
2018-04-22T01:41:02.848Z,56.05
2018-04-22T01:42:02.835Z,56.72
2018-04-22T01:43:02.819Z,56.72
2018-04-22T01:44:02.802Z,56.62
2018-04-22T01:45:02.781Z,56.91
2018-04-22T01:46:02.762Z,56.43
2018-04-22T01:47:02.743Z,56.91
2018-04-22T01:48:02.729Z,57.20
2018-04-22T01:49:02.709Z,57.01
2018-04-22T01:50:02.691Z,56.91
2018-04-22T01:51:02.673Z,56.72
2018-04-22T01:52:02.654Z,56.91
2018-04-22T01:53:02.636Z,57.29
2018-04-22T01:54:02.621Z,57.01
2018-04-22T01:55:02.603Z,57.01
2018-04-22T01:56:02.584Z,57.87
2018-04-22T01:57:02.565Z,57.77
2018-04-22T01:58:02.553Z,58.15
2018-04-22T01:59:02.530Z,57.39
2018-04-22T02:00:02.513Z,56.82
2018-04-22T02:01:02.493Z,56.62
2018-04-22T02:02:02.477Z,56.72
2018-04-22T02:03:02.459Z,56.43
2018-04-22T02:04:02.445Z,56.82
2018-04-22T02:05:02.425Z,56.91
2018-04-22T02:06:02.404Z,57.20
2018-04-22T02:07:02.386Z,57.01
2018-04-22T02:08:02.372Z,57.10
2018-04-22T02:09:02.352Z,57.77
2018-04-22T02:10:02.332Z,57.77
2018-04-22T02:11:02.315Z,57.20
2018-04-22T02:12:02.332Z,57.68
2018-04-22T02:13:02.279Z,57.68
2018-04-22T02:14:02.260Z,58.06
2018-04-22T02:15:02.244Z,57.97
2018-04-22T02:16:02.225Z,58.03
2018-04-22T02:17:02.206Z,57.77
2018-04-22T02:18:02.189Z,58.15
2018-04-22T02:19:02.170Z,57.93
2018-04-22T02:20:02.164Z,58.32
2018-04-22T02:21:02.143Z,58.15
2018-04-22T02:22:02.122Z,58.12
2018-04-22T02:23:02.100Z,57.84
2018-04-22T02:24:02.081Z,58.32
2018-04-22T02:25:02.080Z,57.93
2018-04-22T02:26:02.046Z,57.84
2018-04-22T02:27:02.028Z,58.15
2018-04-22T02:28:02.009Z,58.32
2018-04-22T02:29:02.066Z,58.44
2018-04-22T02:30:01.979Z,58.15
2018-04-22T02:31:01.969Z,58.80
2018-04-22T02:32:01.935Z,58.32
2018-04-22T02:33:01.920Z,58.41
2018-04-22T02:34:01.901Z,58.06
2018-04-22T02:35:01.882Z,57.87
2018-04-22T02:36:01.883Z,58.12
2018-04-22T02:37:01.844Z,59.01
2018-04-22T02:38:01.835Z,58.32
2018-04-22T02:39:01.812Z,58.32
2018-04-22T02:40:01.792Z,58.98
2018-04-22T02:41:01.777Z,58.32
2018-04-22T02:42:01.762Z,58.51
2018-04-22T02:43:01.738Z,58.98
2018-04-22T02:44:01.752Z,58.89
2018-04-22T02:45:01.701Z,58.70
2018-04-22T02:46:01.689Z,58.12
2018-04-22T02:47:01.666Z,57.84
2018-04-22T02:48:01.646Z,58.12
2018-04-22T02:49:01.629Z,58.22
2018-04-22T02:50:01.609Z,57.55
2018-04-22T02:51:01.661Z,58.03
2018-04-22T02:52:01.577Z,58.51
2018-04-22T02:53:01.558Z,58.12
2018-04-22T02:54:01.538Z,58.12
2018-04-22T02:55:02.554Z,57.97
2018-04-22T02:56:01.502Z,57.87
2018-04-22T02:57:01.483Z,58.06
2018-04-22T02:58:01.465Z,57.75
2018-04-22T02:59:01.447Z,57.97
2018-04-22T03:00:01.427Z,58.15
2018-04-22T03:01:01.411Z,58.34
2018-04-22T03:02:01.395Z,58.22
2018-04-22T03:03:01.374Z,57.84
2018-04-22T03:04:01.356Z,57.75
2018-04-22T03:05:01.338Z,58.06
2018-04-22T03:06:01.321Z,58.03
2018-04-22T03:07:01.324Z,57.65
2018-04-22T03:08:01.284Z,57.93
2018-04-22T03:09:01.267Z,57.77
2018-04-22T03:10:01.248Z,58.15
2018-04-22T03:11:01.229Z,57.97
2018-04-22T03:12:01.220Z,58.25
2018-04-22T03:13:01.192Z,58.12
2018-04-22T03:14:01.173Z,58.92
2018-04-22T03:15:01.164Z,59.20
2018-04-22T03:16:01.139Z,58.73
2018-04-22T03:17:01.123Z,58.63
2018-04-22T03:18:01.109Z,58.34
2018-04-22T03:19:01.086Z,58.63
2018-04-22T03:20:01.067Z,58.51
2018-04-22T03:21:01.048Z,58.92
2018-04-22T03:22:01.030Z,58.51
2018-04-22T03:23:01.015Z,58.61
2018-04-22T03:24:00.994Z,58.70
2018-04-22T03:25:00.975Z,58.89
2018-04-22T03:26:00.958Z,59.08
2018-04-22T03:27:00.938Z,60.04
2018-04-22T03:28:00.918Z,59.66
2018-04-22T03:29:00.902Z,59.94
2018-04-22T03:30:00.885Z,60.13
2018-04-22T03:31:00.867Z,60.04
2018-04-22T03:32:00.851Z,60.71
2018-04-22T03:33:00.895Z,60.23
2018-04-22T03:34:00.814Z,59.94
2018-04-22T03:35:00.793Z,60.90
2018-04-22T03:36:00.776Z,60.90
2018-04-22T03:37:00.759Z,60.52
2018-04-22T03:38:00.742Z,60.13
2018-04-22T03:39:00.721Z,60.71
2018-04-22T03:40:00.701Z,60.52
2018-04-22T03:41:00.684Z,59.84
2018-04-22T03:42:00.668Z,60.80
2018-04-22T03:43:00.649Z,60.33
2018-04-22T03:44:00.630Z,60.52
2018-04-22T03:45:00.615Z,60.61
2018-04-22T03:46:00.595Z,60.71
2018-04-22T03:47:00.576Z,60.33
2018-04-22T03:48:00.558Z,61.09
2018-04-22T03:49:00.540Z,60.90
2018-04-22T03:50:00.524Z,60.90
2018-04-22T03:51:00.506Z,60.42
2018-04-22T03:52:00.487Z,60.90
2018-04-22T03:53:00.468Z,60.52
2018-04-22T03:54:00.450Z,60.52
2018-04-22T03:55:00.434Z,60.90
2018-04-22T03:56:00.412Z,60.99
2018-04-22T03:57:00.398Z,60.90
2018-04-22T03:58:00.377Z,60.42
2018-04-22T03:59:00.357Z,61.38
2018-04-22T04:00:00.340Z,61.76
2018-04-22T04:01:00.360Z,61.66
2018-04-22T04:02:00.308Z,62.01
2018-04-22T04:03:00.289Z,62.11
2018-04-22T04:04:00.266Z,61.76
2018-04-22T04:05:00.247Z,62.71
2018-04-22T04:06:00.228Z,62.21
2018-04-22T04:07:00.214Z,62.30
2018-04-22T04:08:00.192Z,62.71
2018-04-22T04:09:00.174Z,62.52
2018-04-22T04:10:00.155Z,62.43
2018-04-22T04:11:00.142Z,62.71
2018-04-22T04:12:00.118Z,62.52
2018-04-22T04:13:00.102Z,62.71
2018-04-22T04:14:00.083Z,62.62
2018-04-22T04:15:00.067Z,62.81
2018-04-22T04:16:00.045Z,62.62
2018-04-22T04:17:00.027Z,61.95
2018-04-22T04:18:00.008Z,62.14
2018-04-22T04:18:59.991Z,61.95
2018-04-22T04:19:59.970Z,61.95
2018-04-22T04:20:59.955Z,61.85
2018-04-22T04:21:59.935Z,62.81
2018-04-22T04:22:59.918Z,62.71
2018-04-22T04:23:59.898Z,61.95
2018-04-22T04:24:59.878Z,62.33
2018-04-22T04:25:59.863Z,61.95
2018-04-22T04:26:59.843Z,62.43
2018-04-22T04:27:59.824Z,62.62
2018-04-22T04:28:59.808Z,62.62
2018-04-22T04:29:59.809Z,62.62
2018-04-22T04:30:59.773Z,62.52
2018-04-22T04:31:59.750Z,61.85
2018-04-22T04:32:59.732Z,61.85
2018-04-22T04:33:59.715Z,62.04
2018-04-22T04:34:59.699Z,62.71
2018-04-22T04:35:59.694Z,62.62
2018-04-22T04:36:59.659Z,62.90
2018-04-22T04:37:59.641Z,62.43
2018-04-22T04:38:59.623Z,62.62
2018-04-22T04:39:59.605Z,62.52
2018-04-22T04:40:59.585Z,62.52
2018-04-22T04:41:59.567Z,61.85
2018-04-22T04:42:59.550Z,61.95
2018-04-22T04:43:59.529Z,62.81
2018-04-22T04:44:59.512Z,62.71
2018-04-22T04:45:59.495Z,62.71
2018-04-22T04:46:59.476Z,62.90
2018-04-22T04:47:59.460Z,62.90
2018-04-22T04:48:59.444Z,62.52
2018-04-22T04:49:59.422Z,62.71
2018-04-22T04:50:59.403Z,62.52
2018-04-22T04:51:59.385Z,62.43
2018-04-22T04:52:59.370Z,62.04
2018-04-22T04:53:59.349Z,62.62
2018-04-22T04:54:59.330Z,62.04
2018-04-22T04:55:59.311Z,62.14
2018-04-22T04:56:59.293Z,61.76
2018-04-22T04:57:59.273Z,61.88
2018-04-22T04:58:59.258Z,61.57
2018-04-22T04:59:59.242Z,61.88
2018-04-22T05:00:59.219Z,61.47
2018-04-22T05:01:59.203Z,60.99
2018-04-22T05:02:59.184Z,61.38
2018-04-22T05:03:59.174Z,61.41
2018-04-22T05:04:59.149Z,61.79
2018-04-22T05:05:59.132Z,61.41
2018-04-22T05:06:59.108Z,61.02
2018-04-22T05:07:59.879Z,60.99
2018-04-22T05:08:59.074Z,61.02
2018-04-22T05:09:59.056Z,61.02
2018-04-22T05:11:01.027Z,61.31
2018-04-22T05:11:59.019Z,61.38
2018-04-22T05:12:59.056Z,61.79
2018-04-22T05:13:58.986Z,61.51
2018-04-22T05:14:58.968Z,61.22
2018-04-22T05:15:58.953Z,61.41
2018-04-22T05:16:58.988Z,61.69
2018-04-22T05:17:58.924Z,61.51
2018-04-22T05:18:58.894Z,61.12
2018-04-22T05:19:59.540Z,61.41
2018-04-22T05:20:58.882Z,61.02
2018-04-22T05:21:58.846Z,61.41
2018-04-22T05:22:58.821Z,61.31
2018-04-22T05:23:58.867Z,60.93
2018-04-22T05:24:58.843Z,60.93
2018-04-22T05:25:58.765Z,61.79
2018-04-22T05:26:58.749Z,62.08
2018-04-22T05:27:58.728Z,61.79
2018-04-22T05:28:58.716Z,61.22
2018-04-22T05:29:58.752Z,61.12
2018-04-22T05:30:58.728Z,61.02
2018-04-22T05:31:58.669Z,61.41
2018-04-22T05:32:58.637Z,61.12
2018-04-22T05:33:58.674Z,60.93
2018-04-22T05:34:58.601Z,61.22
2018-04-22T05:35:58.586Z,61.69
2018-04-22T05:36:58.631Z,62.17
2018-04-22T05:37:58.563Z,61.31
2018-04-22T05:38:58.550Z,61.05
2018-04-22T05:39:58.534Z,61.41
2018-04-22T05:40:59.051Z,61.51
2018-04-22T05:41:59.067Z,62.11
2018-04-22T05:42:58.460Z,62.01
2018-04-22T05:43:58.440Z,62.20
2018-04-22T05:44:58.421Z,61.91
2018-04-22T05:45:58.459Z,61.91
2018-04-22T05:46:58.427Z,62.49
2018-04-22T05:47:58.371Z,61.82
2018-04-22T05:48:58.357Z,62.01
2018-04-22T05:49:58.332Z,62.11
2018-04-22T05:50:58.376Z,62.11
2018-04-22T05:51:58.302Z,61.91
2018-04-22T05:52:58.301Z,62.40
2018-04-22T05:53:58.260Z,61.72
2018-04-22T05:54:58.268Z,61.44
2018-04-22T05:55:58.232Z,61.91
2018-04-22T05:56:58.207Z,61.34
2018-04-22T05:57:58.242Z,61.34
2018-04-22T05:58:58.217Z,61.05
2018-04-22T05:59:58.154Z,61.25
2018-04-22T06:00:58.137Z,61.25
2018-04-22T06:01:58.118Z,60.58
2018-04-22T06:02:58.101Z,61.37
2018-04-22T06:03:58.131Z,61.57
2018-04-22T06:04:58.066Z,62.14
2018-04-22T06:05:58.046Z,60.99
2018-04-22T06:06:58.030Z,60.32
2018-04-22T06:07:58.011Z,60.70
2018-04-22T06:08:58.048Z,60.22
2018-04-22T06:09:57.979Z,60.13
2018-04-22T06:10:57.960Z,60.13
2018-04-22T06:11:57.941Z,60.13
2018-04-22T06:12:57.923Z,60.06
2018-04-22T06:13:57.920Z,59.97
2018-04-22T06:14:57.888Z,59.39
2018-04-22T06:15:57.871Z,59.68
2018-04-22T06:16:57.854Z,59.11
2018-04-22T06:17:59.544Z,59.58
2018-04-22T06:18:57.836Z,59.20
2018-04-22T06:19:57.799Z,59.87
2018-04-22T06:20:57.783Z,59.01
2018-04-22T06:21:57.808Z,58.72
2018-04-22T06:22:57.751Z,59.42
2018-04-22T06:23:57.730Z,58.91
2018-04-22T06:24:58.513Z,58.75
2018-04-22T06:25:57.700Z,58.37
2018-04-22T06:26:57.688Z,58.65
2018-04-22T06:27:59.563Z,59.04
2018-04-22T06:28:57.647Z,57.89
2018-04-22T06:29:57.629Z,59.04
2018-04-22T06:30:57.655Z,58.69
2018-04-22T06:31:57.645Z,58.30
2018-04-22T06:32:57.622Z,58.49
2018-04-22T06:33:57.621Z,58.97
2018-04-22T06:34:57.596Z,58.49
2018-04-22T06:35:58.515Z,58.20
2018-04-22T06:36:57.507Z,58.20
2018-04-22T06:37:57.491Z,57.85
2018-04-22T06:38:57.474Z,58.14
2018-04-22T06:39:57.460Z,57.95
2018-04-22T06:40:59.013Z,58.04
2018-04-22T06:41:57.423Z,58.04
2018-04-22T06:42:57.466Z,56.51
2018-04-22T06:43:57.421Z,56.60
2018-04-22T06:44:57.431Z,56.70
2018-04-22T06:45:58.026Z,56.51
2018-04-22T06:47:02.017Z,56.79
2018-04-22T06:47:57.331Z,56.70
2018-04-22T06:48:57.307Z,56.63
2018-04-22T06:49:57.291Z,56.89
2018-04-22T06:50:57.271Z,56.89
2018-04-22T06:51:57.255Z,57.18
2018-04-22T06:52:57.239Z,57.95
2018-04-22T06:53:57.222Z,56.73
2018-04-22T06:54:57.209Z,56.79
2018-04-22T06:55:58.070Z,56.02
2018-04-22T06:56:57.219Z,56.92
2018-04-22T06:57:57.157Z,57.65
2018-04-22T06:58:57.180Z,57.37
2018-04-22T06:59:57.123Z,58.14
2018-04-22T07:00:57.110Z,58.04
2018-04-22T07:01:58.076Z,57.88
2018-04-22T07:02:57.126Z,58.45
2018-04-22T07:03:57.058Z,58.36
2018-04-22T07:04:57.042Z,58.45
2018-04-22T07:05:57.079Z,58.36
2018-04-22T07:06:57.012Z,58.36
2018-04-22T07:07:57.588Z,58.07
2018-04-22T07:08:56.980Z,58.26
2018-04-22T07:09:56.959Z,57.68
2018-04-22T07:10:56.963Z,58.17
2018-04-22T07:11:56.929Z,58.36
2018-04-22T07:12:56.916Z,58.17
2018-04-22T07:13:56.895Z,57.88
2018-04-22T07:14:56.878Z,58.00
2018-04-22T07:15:56.919Z,56.66
2018-04-22T07:16:56.848Z,56.95
2018-04-22T07:17:56.830Z,56.37
2018-04-22T07:18:56.868Z,56.27
2018-04-22T07:19:56.852Z,56.56
2018-04-22T07:20:56.833Z,55.69
2018-04-22T07:21:56.826Z,56.37
2018-04-22T07:22:56.808Z,56.46
2018-04-22T07:23:56.785Z,57.04
2018-04-22T07:24:57.527Z,56.98
2018-04-22T07:25:56.750Z,56.98
2018-04-22T07:26:56.749Z,57.26
2018-04-22T07:27:56.735Z,56.59
2018-04-22T07:28:56.692Z,56.88
2018-04-22T07:29:56.645Z,56.21
2018-04-22T07:30:56.693Z,55.53
2018-04-22T07:31:56.607Z,56.30
2018-04-22T07:32:56.593Z,56.11
2018-04-22T07:33:56.572Z,55.44
2018-04-22T07:34:56.610Z,55.24
2018-04-22T07:35:56.540Z,56.11
2018-04-22T07:36:56.588Z,56.21
2018-04-22T07:37:56.520Z,55.18
2018-04-22T07:38:56.504Z,55.37
2018-04-22T07:39:56.476Z,55.56
2018-04-22T07:40:56.462Z,55.18
2018-04-22T07:41:56.444Z,55.37
2018-04-22T07:42:56.431Z,55.27
2018-04-22T07:43:56.417Z,55.56
2018-04-22T07:44:56.400Z,54.69
2018-04-22T07:45:56.392Z,54.79
2018-04-22T07:46:56.369Z,54.99
2018-04-22T07:47:56.353Z,56.23
2018-04-22T07:48:56.334Z,57.00
2018-04-22T07:49:56.321Z,56.43
2018-04-22T07:52:39.915Z,56.14
2018-04-22T07:53:39.852Z,56.33
2018-04-22T07:55:33.248Z,56.55
2018-04-22T07:56:33.183Z,56.55
2018-04-22T07:58:26.542Z,56.45
2018-04-22T07:59:26.521Z,56.65
2018-04-22T08:01:19.919Z,56.45
2018-04-22T08:02:19.855Z,55.49
2018-04-22T08:04:13.199Z,56.45
2018-04-22T08:05:13.229Z,56.36
2018-04-22T08:07:06.596Z,56.45
2018-04-22T08:08:06.528Z,56.58
2018-04-22T08:10:04.444Z,56.38
2018-04-22T08:11:04.423Z,55.52
2018-04-22T08:12:58.880Z,55.81
2018-04-22T08:13:58.791Z,56.00
2018-04-22T08:14:58.826Z,56.29
2018-04-22T08:15:58.738Z,56.20
2018-04-22T08:16:58.744Z,56.58
2018-04-22T08:17:58.731Z,55.90
2018-04-22T08:18:59.395Z,55.33
2018-04-22T08:19:58.733Z,55.33
2018-04-22T08:20:58.758Z,56.58
2018-04-22T08:21:58.700Z,56.58
2018-04-22T08:22:58.675Z,56.38
2018-04-22T08:23:58.660Z,56.48
2018-04-22T08:24:58.627Z,56.48
2018-04-22T08:25:58.640Z,55.33
2018-04-22T08:26:58.623Z,55.23
2018-04-22T08:27:58.600Z,55.35
2018-04-22T08:28:58.603Z,55.35
2018-04-22T08:29:58.525Z,55.35
2018-04-22T08:30:58.515Z,55.83
2018-04-22T08:31:58.498Z,56.60
2018-04-22T08:32:58.480Z,56.22
2018-04-22T08:33:58.508Z,56.41
2018-04-22T08:34:58.451Z,57.47
2018-04-22T08:35:58.500Z,56.32
2018-04-22T08:36:58.431Z,55.48
2018-04-22T08:37:58.405Z,56.25
2018-04-22T08:38:58.391Z,56.63
2018-04-22T08:39:58.374Z,57.02
2018-04-22T08:40:58.362Z,57.50
2018-04-22T08:41:58.345Z,55.67
2018-04-22T08:42:58.330Z,55.48
2018-04-22T08:43:58.365Z,56.25
2018-04-22T08:44:58.324Z,56.35
2018-04-22T08:45:58.288Z,56.54
2018-04-22T08:46:58.272Z,57.02
2018-04-22T08:47:58.257Z,56.85
2018-04-22T08:48:58.243Z,56.82
2018-04-22T08:49:58.228Z,57.24
2018-04-22T08:50:58.223Z,56.85
2018-04-22T08:51:58.202Z,57.53
2018-04-22T08:52:58.185Z,56.27
2018-04-22T08:53:58.170Z,55.51
2018-04-22T08:54:58.165Z,56.47
2018-04-22T08:55:58.144Z,56.37
2018-04-22T08:56:58.179Z,56.49
2018-04-22T08:57:58.112Z,54.96
2018-04-22T08:58:58.098Z,55.05
2018-04-22T08:59:58.152Z,54.86
2018-04-22T09:00:58.095Z,55.54
2018-04-22T09:01:58.090Z,54.66
2018-04-22T09:02:58.041Z,54.38
2018-04-22T09:03:58.064Z,54.28
2018-04-22T09:04:58.027Z,54.66
2018-04-22T09:05:58.017Z,55.34
2018-04-22T09:06:58.669Z,55.46
2018-04-22T09:07:57.971Z,55.18
2018-04-22T09:08:58.724Z,54.02
2018-04-22T09:09:58.041Z,54.60
2018-04-22T09:10:57.926Z,54.88
2018-04-22T09:11:57.912Z,54.50
2018-04-22T09:12:59.043Z,54.40
2018-04-22T09:13:58.740Z,55.08
2018-04-22T09:14:58.479Z,54.60
2018-04-22T09:15:58.594Z,55.08
2018-04-22T09:16:57.879Z,54.53
2018-04-22T09:17:59.094Z,54.53
2018-04-22T09:18:58.783Z,54.05
2018-04-22T09:19:59.628Z,54.53
2018-04-22T09:20:59.085Z,54.43
2018-04-22T09:21:58.462Z,54.72
2018-04-22T09:22:57.759Z,53.75
2018-04-22T09:23:57.886Z,53.56
2018-04-22T09:24:59.818Z,53.88
2018-04-22T09:26:00.198Z,54.75
2018-04-22T09:26:58.014Z,53.88
2018-04-22T09:27:58.037Z,53.69
2018-04-22T09:28:57.689Z,53.49
2018-04-22T09:29:58.947Z,53.85
2018-04-22T09:30:57.718Z,54.72
2018-04-22T09:31:57.829Z,53.85
2018-04-22T09:32:57.758Z,53.85
2018-04-22T09:33:58.940Z,53.56
2018-04-22T09:34:57.598Z,53.78
2018-04-22T09:35:57.972Z,54.55
2018-04-22T09:36:58.195Z,53.78
2018-04-22T09:37:57.556Z,53.78
2018-04-22T09:38:57.546Z,52.43
2018-04-22T09:39:58.002Z,52.43
2018-04-22T09:40:57.779Z,52.72
2018-04-22T09:41:57.627Z,54.17
2018-04-22T09:42:57.490Z,53.39
2018-04-22T09:43:59.601Z,53.11
2018-04-22T09:44:57.515Z,53.30
2018-04-22T09:45:59.494Z,52.84
2018-04-22T09:46:58.510Z,51.87
2018-04-22T09:47:59.239Z,51.87
2018-04-22T09:48:58.877Z,51.78
2018-04-22T09:49:57.615Z,51.87
2018-04-22T09:50:58.837Z,51.97
2018-04-22T09:51:57.625Z,51.68
2018-04-22T09:52:57.357Z,50.81
2018-04-22T09:53:57.343Z,50.33
2018-04-22T09:54:58.025Z,50.71
2018-04-22T09:55:57.319Z,52.36
2018-04-22T09:56:57.313Z,51.78
2018-04-22T09:57:57.296Z,50.71
2018-04-22T09:58:57.281Z,50.33
2018-04-22T09:59:58.060Z,50.84
2018-04-22T10:00:57.252Z,50.71
2018-04-22T10:01:57.833Z,50.91
2018-04-22T10:02:57.225Z,51.61
2018-04-22T10:03:57.358Z,50.55
2018-04-22T10:04:57.254Z,50.93
2018-04-22T10:05:57.220Z,50.65
2018-04-22T10:06:57.192Z,50.65
2018-04-22T10:07:57.778Z,49.87
2018-04-22T10:08:57.834Z,49.80
2018-04-22T10:09:57.164Z,50.38
2018-04-22T10:10:58.094Z,50.07
2018-04-22T10:11:57.693Z,50.45
2018-04-22T10:12:57.952Z,50.57
2018-04-22T10:13:57.085Z,50.38
2018-04-22T10:14:57.071Z,49.70
2018-04-22T10:15:59.033Z,50.67
2018-04-22T10:16:58.613Z,49.70
2018-04-22T10:17:57.034Z,49.90
2018-04-22T10:18:57.028Z,49.82
2018-04-22T10:19:57.008Z,50.02
2018-04-22T10:20:57.623Z,49.63
2018-04-22T10:21:57.039Z,48.69
2018-04-22T10:22:56.970Z,47.43
2018-04-22T10:23:56.959Z,47.43
2018-04-22T10:24:56.948Z,46.94
2018-04-22T10:25:56.941Z,46.97
2018-04-22T10:26:56.921Z,47.64
2018-04-22T10:27:57.664Z,46.60
2018-04-22T10:28:57.032Z,46.41
2018-04-22T10:29:58.011Z,46.62
2018-04-22T10:30:56.892Z,46.62
2018-04-22T10:31:56.944Z,45.80
2018-04-22T10:32:58.077Z,44.46
2018-04-22T10:34:00.564Z,44.51
2018-04-22T10:34:57.215Z,41.71
2018-04-22T10:35:57.519Z,39.94
2018-04-22T10:38:00.639Z,39.84
2018-04-22T10:38:56.795Z,39.28
2018-04-22T10:39:56.787Z,38.64
2018-04-22T10:40:56.832Z,38.18
2018-04-22T10:41:56.839Z,37.04
2018-04-22T10:42:57.907Z,36.10
2018-04-22T10:43:58.229Z,35.53
2018-04-22T10:44:56.741Z,35.25
2018-04-22T10:45:58.386Z,34.09
2018-04-22T10:46:57.335Z,33.45
2018-04-22T10:47:56.742Z,32.29
2018-04-22T10:48:57.479Z,30.65
2018-04-22T10:49:58.101Z,29.59
2018-04-22T10:50:57.976Z,28.97
2018-04-22T10:51:57.444Z,28.99
2018-04-22T10:52:57.325Z,29.43
2018-04-22T10:53:57.762Z,28.86
2018-04-22T10:54:57.504Z,27.32
2018-04-22T10:55:57.343Z,26.92
2018-04-22T10:56:57.413Z,26.67
2018-04-22T10:57:57.811Z,25.08
2018-04-22T10:58:57.855Z,24.95
2018-04-22T10:59:57.107Z,25.71
2018-04-22T11:00:58.158Z,26.87
2018-04-22T11:01:57.611Z,27.73
2018-04-22T11:02:57.677Z,28.31
2018-04-22T11:03:58.599Z,29.41
2018-04-22T11:04:57.512Z,28.99
2018-04-22T11:05:58.760Z,29.58
2018-04-22T11:06:58.773Z,29.66
2018-04-22T11:07:56.621Z,29.94
2018-04-22T11:08:56.702Z,30.30
2018-04-22T11:09:56.612Z,30.59
2018-04-22T11:10:57.500Z,30.51
2018-04-22T11:11:56.855Z,30.13
2018-04-22T11:12:57.460Z,29.35
2018-04-22T11:13:57.273Z,30.35
2018-04-22T11:14:57.248Z,30.25
2018-04-22T11:15:56.752Z,29.94
2018-04-22T11:16:56.589Z,29.93
2018-04-22T11:17:56.587Z,30.02
2018-04-22T11:18:56.588Z,30.04
2018-04-22T11:19:56.579Z,29.93
2018-04-22T11:20:56.576Z,30.41
2018-04-22T11:21:56.582Z,29.95
2018-04-22T11:22:56.631Z,29.61
2018-04-22T11:23:56.619Z,30.20
2018-04-22T11:24:56.563Z,29.93
2018-04-22T11:25:56.561Z,29.81
2018-04-22T11:26:56.559Z,30.48
2018-04-22T11:27:56.568Z,30.37
2018-04-22T11:28:56.558Z,31.25
2018-04-22T11:29:56.693Z,31.54
2018-04-22T11:30:56.938Z,31.45
2018-04-22T11:31:56.989Z,31.57
2018-04-22T11:32:56.550Z,30.40
2018-04-22T11:33:56.538Z,30.32
2018-04-22T11:34:56.533Z,30.41
2018-04-22T11:35:56.536Z,30.02
2018-04-22T11:36:56.707Z,29.94
2018-04-22T11:37:57.705Z,29.46
2018-04-22T11:38:56.919Z,28.89
2018-04-22T11:39:56.522Z,28.11
2018-04-22T11:40:56.611Z,27.98
2018-04-22T11:42:57.477Z,28.09
2018-04-22T11:43:56.505Z,28.89
2018-04-22T11:44:56.503Z,28.02
2018-04-22T11:45:58.190Z,27.64
2018-04-22T11:46:56.497Z,27.14
2018-04-22T11:47:56.496Z,26.79
2018-04-22T11:48:56.492Z,26.43
2018-04-22T11:49:56.490Z,24.06
2018-04-22T11:50:57.836Z,22.08
2018-04-22T11:51:56.488Z,22.86
2018-04-22T11:52:56.492Z,23.45
2018-04-22T11:53:56.892Z,23.35
2018-04-22T11:54:56.480Z,23.08
2018-04-22T11:55:56.507Z,23.07
2018-04-22T11:56:57.371Z,23.16
2018-04-22T11:57:56.572Z,23.23
2018-04-22T11:58:56.469Z,23.11
2018-04-22T11:59:57.396Z,22.83
2018-04-22T12:00:56.467Z,23.23
2018-04-22T12:01:56.887Z,23.63
2018-04-22T12:02:57.036Z,22.94
2018-04-22T12:03:57.209Z,23.80
2018-04-22T12:04:56.478Z,24.57
2018-04-22T12:05:56.462Z,23.98
2018-04-22T12:06:56.579Z,24.07
2018-04-22T12:07:56.454Z,24.05
2018-04-22T12:08:56.453Z,25.02
2018-04-22T12:09:56.448Z,25.32
2018-04-22T12:10:56.466Z,25.82
2018-04-22T12:11:57.011Z,23.41
2018-04-22T12:12:56.442Z,23.32
2018-04-22T12:13:56.480Z,23.42
2018-04-22T12:14:56.440Z,22.83
2018-04-22T12:15:56.434Z,23.39
2018-04-22T12:16:56.446Z,25.12
2018-04-22T12:17:56.447Z,25.44
2018-04-22T12:18:56.456Z,24.18
2018-04-22T12:19:56.428Z,24.19
2018-04-22T12:20:56.451Z,23.21
2018-04-22T12:21:56.422Z,23.43
2018-04-22T12:22:56.421Z,23.32
2018-04-22T12:23:56.436Z,23.24
2018-04-22T12:24:56.418Z,22.97
2018-04-22T12:25:56.414Z,21.89
2018-04-22T12:26:56.426Z,21.64
2018-04-22T12:27:56.436Z,20.17
2018-04-22T12:28:58.938Z,18.62
2018-04-22T12:29:56.410Z,18.34
2018-04-22T12:30:56.421Z,18.14
2018-04-22T12:31:56.417Z,17.74
2018-04-22T12:32:56.463Z,18.13
2018-04-22T12:33:56.404Z,18.58
2018-04-22T12:34:56.405Z,19.06
2018-04-22T12:35:56.404Z,19.09
2018-04-22T12:36:56.404Z,19.68
2018-04-22T12:37:56.436Z,18.52
2018-04-22T12:38:56.402Z,17.68
2018-04-22T12:39:56.402Z,16.69
2018-04-22T12:40:56.409Z,17.08
2018-04-22T12:41:56.419Z,17.68
2018-04-22T12:42:56.408Z,17.18
2018-04-22T12:43:56.451Z,16.69
2018-04-22T12:44:56.405Z,16.80
2018-04-22T12:45:56.457Z,16.32
2018-04-22T12:46:56.411Z,16.06
2018-04-22T12:47:56.409Z,14.36
2018-04-22T12:48:56.433Z,15.18
2018-04-22T12:49:56.418Z,13.10
2018-04-22T12:50:56.417Z,13.12
2018-04-22T12:51:56.415Z,12.91
2018-04-22T12:52:56.419Z,13.09
2018-04-22T12:53:56.447Z,13.78
2018-04-22T12:54:56.429Z,13.58
2018-04-22T12:55:56.432Z,12.87
2018-04-22T12:56:56.430Z,14.01
2018-04-22T12:57:56.481Z,14.90
2018-04-22T12:58:56.437Z,14.82
2018-04-22T12:59:56.493Z,14.73
2018-04-22T13:00:56.461Z,14.83
2018-04-22T13:01:56.452Z,14.25